Aeroporto :







RITROVATECI SU...

 
LOGIN :

Iscrizione | Disclaimer

   EN    FR    IT 

 









Sommario :    VFR   VFR Marginale   IFR   IFR Intensivo   IFR Molto Intensivo
Visibilità : 
Base nubi : 
>= 8 km
>= 3000ft
5 / 8 km
1000 / 3000 ft
1500m / 5 km
500 / 1000 ft
800 / 1500m
200 / 500 ft
< 800m
< 200 ft
Simboli :   Temporali  Nebbia  Neve Forte  Precipitazioni Forti  Vento > 20 kt







- Altitudine del aeroporto : 20 ft
- Codice IATA : BOS


KBOS - General Edward Lawrence Logan International

ULTIMO METAR :
  • 222143Z 02015G22KT 1 1/2SM R04R/5000VP6000FT RA BR SCT005 BKN016 OVC028 12/10 A2999 RMK AO2 PK WND 03027/2057 TWR VIS 3 P0017 T01170100

METARs OBSOLETI :
  • 222130Z 02015G21KT 1 1/2SM R04R/4000VP6000FT +RA BR BKN006 OVC016 12/10 A3000 RMK AO2 PK WND 03027/2057 TWR VIS 3 P0006 T01170100
  • 222111Z 04016KT 3SM -RA BR BKN007 BKN024 OVC033 12/11 A2999 RMK AO2 PK WND 03027/2057 SFC VIS 4 P0002 T01220106
  • 221954Z 01018G23KT 1 1/2SM R04R/4500VP6000FT RA BR BKN007 OVC013 12/11 A3000 RMK AO2 TWR VIS 1 3/4 SLP158 P0025 T01220106
  • 221946Z 01016KT 1 3/4SM R04R/5500VP6000FT RA BR SCT006 BKN010 OVC021 12/11 A3000 RMK AO2 SFC VIS 2 P0023 T01220106
  • 221854Z 01015KT 1 1/4SM R04R/4500VP6000FT +RA BR FEW006 BKN019 OVC045 12/10 A3004 RMK AO2 SFC VIS 1 1/2 SLP170 P0044 T01170100

TAF KBOS
Valido dal 22 a 20 ore il 24 a 00 ore UTC


222022Z 2220/2324 02012G20KT 2SM RA BR BKN003
FM231300 01010G18KT P6SM OVC008
FM231800 04008KT P6SM BKN020
FM232200 08007KT P6SM SCT040
FIR KZBW / America del Nord



MetMap, La meteo Aeronautica in un colpo d'occhio ! - Copyright ORBIFLY Dicembre 2007 - Disclaimer

ORBIFLY MET'MAP TEAM :

Programmazione e sviluppo : Alexandra Zaïnal
Concezione e sviluppo : Baudouin d'Aumeries
Co-Programmazione e sviluppo : Marc-Olivier Méhu
Supporto tecnico e logistico : Manuel Goepfert
Aiuto per la traduzione : Arnaldo La Scala

Contatto : metmap@orbifly.com




FONTI E CREDITI :

   NOAA